Time;durP1;ratioP1;P1;durP2;ratioP2;P2;SDS_P1;SDS_P2;PMS_P1;PMS_P2;Temp;Humidity;BMP_temperature;BMP_pressure;BME280_temperature;BME280_humidity;BME280_pressure;Samples;Min_cycle;Max_cycle;Signal;HPM_P1;HPM_P2
2023/12/25 00:00:16;;;;;;;4.60;2.60;;;;;;;18.28;34.47;100303.31;102386;1294;59999;-76
2023/12/25 00:02:42;;;;;;;4.30;2.70;;;;;;;18.28;34.61;100299.76;102367;1294;72571;-76
2023/12/25 00:05:07;;;;;;;4.50;2.80;;;;;;;18.28;34.56;100299.96;102584;1292;62090;-76
2023/12/25 00:07:33;;;;;;;4.00;2.60;;;;;;;18.28;34.63;100295.51;102582;1292;62206;-76
2023/12/25 00:09:59;;;;;;;4.50;2.80;;;;;;;18.28;34.71;100296.05;102433;1295;62284;-76
2023/12/25 00:12:25;;;;;;;4.50;2.70;;;;;;;18.27;34.59;100286.99;102573;1293;62202;-76
2023/12/25 00:14:50;;;;;;;4.50;2.70;;;;;;;18.27;34.55;100283.23;102439;1292;62083;-76
2023/12/25 00:17:16;;;;;;;4.50;2.80;;;;;;;18.26;34.63;100288.81;102498;1294;75133;-76
2023/12/25 00:19:42;;;;;;;5.50;3.00;;;;;;;18.27;34.44;100290.19;102436;1292;62170;-76
2023/12/25 00:22:07;;;;;;;4.90;2.90;;;;;;;18.26;34.59;100291.48;102382;1292;60147;-76
2023/12/25 00:24:33;;;;;;;4.50;2.80;;;;;;;18.26;34.63;100283.11;102571;1292;62084;-76
2023/12/25 00:26:59;;;;;;;4.70;2.50;;;;;;;18.26;34.57;100279.73;102531;1293;62238;-76
2023/12/25 00:29:25;;;;;;;4.20;2.60;;;;;;;18.26;34.53;100273.53;102608;1298;62222;-76
2023/12/25 00:31:50;;;;;;;4.90;2.70;;;;;;;18.26;34.48;100276.73;102510;1296;62100;-76
2023/12/25 00:34:16;;;;;;;4.40;2.70;;;;;;;18.26;34.62;100262.11;102444;1293;62240;-76
2023/12/25 00:36:42;;;;;;;4.40;2.60;;;;;;;18.26;34.59;100263.71;102528;1292;62309;-76
2023/12/25 00:39:08;;;;;;;6.20;3.10;;;;;;;18.25;34.47;100266.58;102507;1294;62229;-76
2023/12/25 00:41:34;;;;;;;4.50;2.70;;;;;;;18.25;34.54;100260.36;102423;1295;60675;-76
2023/12/25 00:43:59;;;;;;;5.80;2.70;;;;;;;18.25;34.60;100253.30;102588;1292;62221;-76
2023/12/25 00:46:26;;;;;;;4.50;2.90;;;;;;;18.25;34.56;100248.81;102398;1298;62944;-76
2023/12/25 00:48:52;;;;;;;4.20;2.80;;;;;;;18.24;34.71;100238.16;102502;1294;60829;-76
2023/12/25 00:51:17;;;;;;;4.50;2.90;;;;;;;18.24;34.63;100236.95;102482;1292;75124;-76
2023/12/25 00:53:43;;;;;;;4.80;2.60;;;;;;;18.24;34.50;100247.77;102406;1296;59940;-76
2023/12/25 00:56:09;;;;;;;4.80;2.70;;;;;;;18.24;34.47;100255.27;102478;1292;60826;-76
2023/12/25 00:58:35;;;;;;;4.50;2.70;;;;;;;18.24;34.61;100250.48;102334;1294;62210;-76
2023/12/25 01:01:01;;;;;;;4.50;2.40;;;;;;;18.24;34.58;100251.36;102531;1292;62192;-76
2023/12/25 01:03:27;;;;;;;4.80;2.80;;;;;;;18.24;34.57;100262.45;102311;1292;62139;-76
2023/12/25 01:05:52;;;;;;;4.60;2.80;;;;;;;18.24;34.60;100264.74;102395;1294;62214;-76
2023/12/25 01:08:18;;;;;;;4.60;2.70;;;;;;;18.24;34.58;100278.81;102510;1293;60229;-76
2023/12/25 01:10:43;;;;;;;4.80;2.80;;;;;;;18.23;34.57;100287.95;102334;1293;62173;-76
2023/12/25 01:13:09;;;;;;;3.70;2.30;;;;;;;18.23;34.71;100282.77;102535;1292;62219;-76
2023/12/25 01:15:35;;;;;;;4.70;2.70;;;;;;;18.23;34.58;100280.83;102448;1293;59866;-76
2023/12/25 01:18:00;;;;;;;4.40;2.80;;;;;;;18.23;34.65;100280.11;102594;1293;62197;-76
2023/12/25 01:20:26;;;;;;;4.10;2.60;;;;;;;18.23;34.64;100267.84;102424;1293;60279;-76
2023/12/25 01:22:51;;;;;;;4.60;2.90;;;;;;;18.23;34.61;100282.27;102482;1293;62225;-76
2023/12/25 01:25:17;;;;;;;4.80;2.80;;;;;;;18.23;34.52;100281.57;102468;1293;62285;-76
2023/12/25 01:27:43;;;;;;;5.30;2.90;;;;;;;18.23;34.59;100279.80;102484;1293;62215;-76
2023/12/25 01:30:10;;;;;;;4.50;2.70;;;;;;;18.22;34.71;100275.54;102618;1292;62193;-76
2023/12/25 01:32:35;;;;;;;4.40;2.50;;;;;;;18.22;34.61;100272.71;102500;1292;59625;-76
2023/12/25 01:35:01;;;;;;;4.00;2.40;;;;;;;18.22;34.65;100260.23;102566;1293;60903;-76
2023/12/25 01:37:27;;;;;;;4.50;2.70;;;;;;;18.22;34.59;100247.42;102607;1293;74347;-76
2023/12/25 01:39:52;;;;;;;4.00;2.80;;;;;;;18.22;34.81;100245.80;102465;1292;59915;-76
2023/12/25 01:42:18;;;;;;;4.30;2.80;;;;;;;18.22;34.63;100242.45;102525;1293;62202;-76
2023/12/25 01:44:46;;;;;;;3.90;2.40;;;;;;;18.21;34.54;100241.59;102408;1293;62208;-76
2023/12/25 01:47:12;;;;;;;4.80;2.80;;;;;;;18.21;34.74;100239.83;102444;1293;60740;-76
2023/12/25 01:49:37;;;;;;;5.50;2.80;;;;;;;18.21;34.64;100238.55;102554;1293;62166;-76
2023/12/25 01:52:03;;;;;;;4.20;2.60;;;;;;;18.21;34.69;100241.58;102514;1293;62207;-76
2023/12/25 01:54:29;;;;;;;5.00;2.70;;;;;;;18.21;34.75;100237.33;102462;1293;62081;-76
2023/12/25 01:56:55;;;;;;;4.90;2.40;;;;;;;18.21;34.71;100243.23;102399;1293;62219;-76
2023/12/25 01:59:20;;;;;;;4.60;2.80;;;;;;;18.21;34.73;100235.92;102423;1293;75219;-76
2023/12/25 02:01:46;;;;;;;5.30;3.00;;;;;;;18.21;34.71;100230.05;102528;1294;62199;-76
2023/12/25 02:04:11;;;;;;;4.70;3.00;;;;;;;18.20;34.77;100236.85;102291;1293;62273;-76
2023/12/25 02:06:37;;;;;;;6.50;3.00;;;;;;;18.20;34.80;100234.00;102557;1293;60724;-76
2023/12/25 02:09:03;;;;;;;4.30;2.60;;;;;;;18.20;34.70;100227.79;102461;1293;62232;-76
2023/12/25 02:11:29;;;;;;;4.10;2.30;;;;;;;18.20;34.66;100229.54;102444;1293;75397;-76
2023/12/25 02:13:57;;;;;;;3.80;2.30;;;;;;;18.20;34.69;100228.67;102411;1293;62171;-76
2023/12/25 02:16:24;;;;;;;6.10;2.80;;;;;;;18.20;34.73;100228.48;102396;1294;62200;-76
2023/12/25 02:18:50;;;;;;;4.10;2.50;;;;;;;18.20;34.74;100221.21;102458;1294;62187;-76
2023/12/25 02:21:16;;;;;;;4.70;2.80;;;;;;;18.20;34.73;100220.68;102290;1293;62167;-76
2023/12/25 02:23:42;;;;;;;5.00;2.70;;;;;;;18.20;34.67;100218.17;102581;1293;60794;-76
2023/12/25 02:26:07;;;;;;;4.40;2.60;;;;;;;18.20;34.68;100220.32;102467;1293;62251;-76
2023/12/25 02:28:33;;;;;;;3.90;2.30;;;;;;;18.19;34.67;100227.64;102457;1293;62069;-76
2023/12/25 02:30:59;;;;;;;4.40;2.60;;;;;;;18.19;34.58;100229.98;102524;1293;62222;-76
2023/12/25 02:33:26;;;;;;;4.00;2.50;;;;;;;18.19;34.77;100229.45;102550;1293;62286;-76
2023/12/25 02:35:52;;;;;;;3.90;2.50;;;;;;;18.19;34.66;100229.45;102513;1293;62083;-76
2023/12/25 02:38:17;;;;;;;4.70;2.60;;;;;;;18.19;34.71;100226.80;102483;1294;62114;-76
2023/12/25 02:40:43;;;;;;;4.00;2.70;;;;;;;18.19;34.65;100226.29;102679;1293;62196;-76
2023/12/25 02:43:09;;;;;;;4.50;2.70;;;;;;;18.19;34.68;100232.48;102482;1292;62219;-76
2023/12/25 02:45:35;;;;;;;4.30;2.60;;;;;;;18.19;34.74;100228.77;102339;1293;59988;-76
2023/12/25 02:48:00;;;;;;;4.80;2.50;;;;;;;18.19;34.73;100233.74;102498;1294;62170;-76
2023/12/25 02:50:26;;;;;;;4.40;2.70;;;;;;;18.19;34.71;100233.04;102502;1292;60157;-76
2023/12/25 02:52:52;;;;;;;4.60;2.80;;;;;;;18.19;34.84;100227.16;102257;1293;62219;-76
2023/12/25 02:55:18;;;;;;;4.10;2.60;;;;;;;18.19;34.66;100220.77;102494;1293;62169;-76
2023/12/25 02:57:43;;;;;;;4.00;2.40;;;;;;;18.19;34.72;100219.70;102549;1293;60124;-76
2023/12/25 03:00:10;;;;;;;4.90;2.60;;;;;;;18.18;34.72;100219.89;102496;1293;62328;-76
2023/12/25 03:02:35;;;;;;;4.70;2.70;;;;;;;18.18;34.74;100209.42;102531;1293;62196;-76
2023/12/25 03:05:01;;;;;;;4.20;2.60;;;;;;;18.17;34.59;100205.86;102569;1294;60120;-76
2023/12/25 03:07:27;;;;;;;4.30;2.70;;;;;;;18.18;34.68;100206.00;102581;1292;75347;-76
2023/12/25 03:09:53;;;;;;;4.70;2.70;;;;;;;18.18;34.71;100196.60;102419;1294;62296;-76
2023/12/25 03:12:18;;;;;;;4.10;2.60;;;;;;;18.18;34.74;100200.89;102401;1293;62172;-76
2023/12/25 03:14:44;;;;;;;3.90;2.40;;;;;;;18.17;34.79;100206.05;102516;1294;62173;-76
2023/12/25 03:17:10;;;;;;;5.20;2.70;;;;;;;18.18;34.64;100201.07;102768;1293;60145;-76
2023/12/25 03:19:35;;;;;;;4.30;2.40;;;;;;;18.17;34.69;100195.02;102500;1294;62294;-76
2023/12/25 03:22:01;;;;;;;3.30;2.30;;;;;;;18.17;34.66;100201.45;102551;1292;62095;-76
2023/12/25 03:24:27;;;;;;;3.70;2.40;;;;;;;18.17;34.73;100198.77;102414;1292;60860;-76
2023/12/25 03:26:52;;;;;;;3.80;2.50;;;;;;;18.17;34.85;100192.70;102469;1293;62199;-76
2023/12/25 03:29:18;;;;;;;5.10;2.70;;;;;;;18.17;34.73;100184.01;102413;1294;62317;-76
2023/12/25 03:31:44;;;;;;;4.20;2.60;;;;;;;18.17;34.87;100179.55;102537;1293;72328;-76
2023/12/25 03:34:15;;;;;;;3.80;2.40;;;;;;;18.17;34.69;100171.20;102527;1294;62183;-76
2023/12/25 03:36:42;;;;;;;4.60;2.60;;;;;;;18.17;34.73;100159.09;102440;1294;62202;-76
2023/12/25 03:39:07;;;;;;;3.90;2.30;;;;;;;18.16;34.79;100157.87;102678;1292;72329;-76
2023/12/25 03:41:33;;;;;;;4.20;2.50;;;;;;;18.16;34.78;100157.49;102310;1292;62260;-76
2023/12/25 03:43:59;;;;;;;4.10;2.50;;;;;;;18.16;34.79;100161.25;102481;1296;59845;-76
2023/12/25 03:46:24;;;;;;;4.70;2.60;;;;;;;18.17;34.78;100163.73;102618;1294;62045;-76
2023/12/25 03:48:50;;;;;;;5.70;2.60;;;;;;;18.16;34.75;100167.32;102427;1296;62216;-76
2023/12/25 03:51:16;;;;;;;3.90;2.40;;;;;;;18.16;34.69;100168.38;102400;1293;60832;-76
2023/12/25 03:53:42;;;;;;;5.20;2.50;;;;;;;18.16;34.71;100171.81;102480;1293;75429;-76
2023/12/25 03:56:08;;;;;;;3.70;2.30;;;;;;;18.16;34.75;100171.39;102482;1293;62228;-76
2023/12/25 03:58:35;;;;;;;4.50;2.50;;;;;;;18.16;34.83;100173.89;102416;1292;62072;-76
2023/12/25 04:01:01;;;;;;;3.80;2.40;;;;;;;18.16;34.67;100180.69;102421;1292;62380;-76
2023/12/25 04:03:26;;;;;;;4.00;2.40;;;;;;;18.17;34.74;100192.73;102465;1292;62110;-76
2023/12/25 04:05:52;;;;;;;5.10;2.40;;;;;;;18.16;34.75;100191.17;102358;1294;62304;-76
2023/12/25 04:08:18;;;;;;;4.20;2.50;;;;;;;18.16;34.77;100196.16;102464;1293;62720;-76
2023/12/25 04:10:43;;;;;;;3.90;2.30;;;;;;;18.16;34.78;100202.04;102554;1294;62035;-76
2023/12/25 04:13:09;;;;;;;4.00;2.50;;;;;;;18.16;34.64;100200.28;102529;1293;72298;-76
2023/12/25 04:15:34;;;;;;;4.30;2.40;;;;;;;18.16;34.74;100198.48;102499;1293;62225;-76
2023/12/25 04:18:00;;;;;;;4.00;2.40;;;;;;;18.15;34.76;100199.98;102522;1292;62168;-76
2023/12/25 04:20:26;;;;;;;4.50;2.60;;;;;;;18.15;34.83;100207.08;102719;1292;60975;-76
2023/12/25 04:22:51;;;;;;;4.30;2.60;;;;;;;18.16;34.66;100210.63;102410;1294;62206;-76
2023/12/25 04:25:17;;;;;;;4.30;2.50;;;;;;;18.15;34.70;100206.91;102529;1292;62206;-76
2023/12/25 04:27:43;;;;;;;4.30;2.50;;;;;;;18.16;34.87;100205.13;102545;1292;60018;-76
2023/12/25 04:30:08;;;;;;;5.10;2.70;;;;;;;18.16;34.75;100195.67;102550;1293;62157;-76
2023/12/25 04:32:34;;;;;;;4.00;2.50;;;;;;;18.15;34.85;100188.40;102479;1294;62685;-76
2023/12/25 04:35:00;;;;;;;4.10;2.50;;;;;;;18.15;34.79;100178.09;102554;1293;62042;-76
2023/12/25 04:37:25;;;;;;;3.90;2.40;;;;;;;18.15;34.76;100184.67;102469;1292;62090;-76
2023/12/25 04:39:52;;;;;;;4.40;2.60;;;;;;;18.14;34.72;100187.58;102755;1299;60127;-76
2023/12/25 04:42:17;;;;;;;3.90;2.40;;;;;;;18.14;34.88;100176.89;102639;1293;62164;-76
2023/12/25 04:44:43;;;;;;;4.80;2.50;;;;;;;18.15;34.86;100177.05;102492;1293;62211;-76
2023/12/25 04:47:09;;;;;;;4.00;2.60;;;;;;;18.14;34.90;100170.82;102494;1294;62199;-76
2023/12/25 04:49:34;;;;;;;4.30;2.40;;;;;;;18.14;34.88;100177.24;102558;1293;59926;-76
2023/12/25 04:52:00;;;;;;;3.80;2.40;;;;;;;18.15;34.82;100185.06;102554;1293;62075;-76
2023/12/25 04:54:26;;;;;;;4.00;2.50;;;;;;;18.14;34.84;100183.67;102454;1293;62190;-76
2023/12/25 04:56:56;;;;;;;3.90;2.50;;;;;;;18.14;34.82;100188.30;102558;1293;62186;-76
2023/12/25 04:59:22;;;;;;;4.90;2.80;;;;;;;18.14;34.80;100183.87;102392;1293;72375;-76
2023/12/25 05:01:53;;;;;;;3.60;2.40;;;;;;;18.14;34.83;100190.27;102490;1293;59897;-76
2023/12/25 05:04:18;;;;;;;4.40;2.50;;;;;;;18.13;34.85;100192.80;102492;1296;62084;-76
2023/12/25 05:06:44;;;;;;;4.00;2.20;;;;;;;18.13;34.80;100188.55;102519;1293;60835;-77
2023/12/25 05:09:10;;;;;;;4.90;2.70;;;;;;;18.13;34.94;100193.02;102347;1293;62356;-76
2023/12/25 05:11:35;;;;;;;4.30;2.60;;;;;;;18.13;34.81;100188.91;102543;1293;62270;-76
2023/12/25 05:14:01;;;;;;;4.00;2.60;;;;;;;18.13;34.84;100186.80;102664;1294;60872;-76
2023/12/25 05:16:27;;;;;;;4.30;2.70;;;;;;;18.12;34.80;100179.14;102524;1292;62187;-76
2023/12/25 05:18:53;;;;;;;3.70;2.50;;;;;;;18.13;34.91;100173.45;102440;1293;62308;-76
2023/12/25 05:21:18;;;;;;;4.40;2.60;;;;;;;18.12;34.93;100187.53;102464;1294;61975;-76
2023/12/25 05:23:44;;;;;;;4.40;2.80;;;;;;;18.12;34.83;100195.54;102581;1292;62174;-76
2023/12/25 05:26:10;;;;;;;4.70;2.50;;;;;;;18.12;34.89;100198.06;102535;1292;62210;-76
2023/12/25 05:28:35;;;;;;;4.50;2.80;;;;;;;18.12;34.89;100189.70;102478;1293;62186;-76
2023/12/25 05:31:01;;;;;;;3.70;2.40;;;;;;;18.12;34.90;100182.93;102494;1294;60280;-76
2023/12/25 05:33:27;;;;;;;3.60;2.20;;;;;;;18.12;34.88;100185.96;102562;1292;62100;-76
2023/12/25 05:35:52;;;;;;;4.40;2.60;;;;;;;18.12;34.90;100185.96;102262;1293;62248;-76
2023/12/25 05:38:18;;;;;;;4.50;2.40;;;;;;;18.12;34.83;100190.04;102710;1293;59900;-76
2023/12/25 05:40:43;;;;;;;3.50;2.30;;;;;;;18.11;34.85;100204.68;102464;1294;62712;-76
2023/12/25 05:43:10;;;;;;;4.60;2.70;;;;;;;18.11;34.96;100199.36;102551;1292;62223;-76
2023/12/25 05:45:38;;;;;;;4.30;2.70;;;;;;;18.11;34.81;100204.72;102558;1293;72456;-76
2023/12/25 05:48:04;;;;;;;4.90;2.60;;;;;;;18.11;34.86;100200.41;102462;1294;75341;-76
2023/12/25 05:50:30;;;;;;;4.40;2.70;;;;;;;18.11;34.89;100189.75;102435;1298;62082;-76
2023/12/25 05:52:56;;;;;;;4.50;2.60;;;;;;;18.11;35.04;100187.60;102525;1294;62280;-76
2023/12/25 05:55:21;;;;;;;4.40;2.70;;;;;;;18.11;34.94;100182.80;102511;1293;62310;-76
2023/12/25 05:57:48;;;;;;;4.40;2.70;;;;;;;18.11;34.84;100178.89;102559;1299;62222;-76
2023/12/25 06:00:14;;;;;;;4.90;2.60;;;;;;;18.11;34.87;100178.02;102410;1292;62174;-76
2023/12/25 06:02:40;;;;;;;4.40;2.70;;;;;;;18.11;34.90;100178.18;102290;1292;59936;-76
2023/12/25 06:05:06;;;;;;;4.70;2.50;;;;;;;18.11;35.02;100182.11;102503;1294;62337;-76
2023/12/25 06:07:32;;;;;;;4.20;2.30;;;;;;;18.10;34.87;100181.43;102554;1294;72520;-76
2023/12/25 06:09:57;;;;;;;4.30;2.60;;;;;;;18.11;35.00;100182.48;102445;1292;62294;-76
2023/12/25 06:12:23;;;;;;;5.10;2.60;;;;;;;18.11;34.89;100186.75;102629;1293;62230;-76
2023/12/25 06:14:49;;;;;;;4.60;2.70;;;;;;;18.10;34.91;100191.77;102427;1298;62085;-76
2023/12/25 06:17:15;;;;;;;5.40;2.60;;;;;;;18.10;34.89;100190.88;102498;1294;62170;-76
2023/12/25 06:19:41;;;;;;;4.60;2.60;;;;;;;18.10;34.90;100191.39;102394;1294;62201;-76
2023/12/25 06:22:07;;;;;;;4.90;2.40;;;;;;;18.10;35.04;100196.39;102464;1292;62073;-76
2023/12/25 06:24:33;;;;;;;4.50;2.70;;;;;;;18.10;34.99;100194.95;102599;1293;62373;-76
2023/12/25 06:26:59;;;;;;;4.40;2.70;;;;;;;18.10;34.96;100193.73;102455;1292;62094;-76
2023/12/25 06:29:25;;;;;;;4.60;2.90;;;;;;;18.10;35.03;100196.78;102425;1292;62198;-76
2023/12/25 06:31:50;;;;;;;4.30;2.70;;;;;;;18.10;34.98;100192.30;102581;1293;59908;-76
2023/12/25 06:34:16;;;;;;;4.70;2.80;;;;;;;18.10;34.96;100198.04;102476;1294;62299;-76
2023/12/25 06:36:41;;;;;;;5.40;2.70;;;;;;;18.10;34.92;100200.52;102556;1292;72673;-76
2023/12/25 06:39:07;;;;;;;4.70;2.80;;;;;;;18.10;34.90;100208.52;102736;1293;62152;-76
2023/12/25 06:41:33;;;;;;;3.80;2.40;;;;;;;18.10;34.96;100214.59;102390;1298;62754;-76
2023/12/25 06:43:58;;;;;;;4.50;2.70;;;;;;;18.10;35.00;100220.48;102435;1298;62272;-76
2023/12/25 06:46:24;;;;;;;4.80;2.60;;;;;;;18.10;34.96;100223.86;102442;1292;62101;-76
2023/12/25 06:48:49;;;;;;;5.30;2.80;;;;;;;18.09;34.93;100219.44;102453;1293;62160;-76
2023/12/25 06:51:15;;;;;;;4.10;2.40;;;;;;;18.09;34.98;100217.66;102546;1295;62231;-76
2023/12/25 06:53:41;;;;;;;5.40;2.80;;;;;;;18.09;34.94;100220.52;102581;1292;72391;-76
2023/12/25 06:56:07;;;;;;;5.70;2.60;;;;;;;18.09;35.00;100224.41;102797;1294;62167;-76
2023/12/25 06:58:33;;;;;;;4.70;2.80;;;;;;;18.09;34.86;100217.33;102641;1292;62078;-76
2023/12/25 07:01:00;;;;;;;5.90;2.80;;;;;;;18.09;34.92;100221.61;102522;1292;62153;-76
2023/12/25 07:03:26;;;;;;;4.10;2.50;;;;;;;18.08;34.95;100222.50;102379;1292;62186;-76
2023/12/25 07:05:52;;;;;;;4.00;2.30;;;;;;;18.08;35.00;100213.95;102407;1292;62086;-76
2023/12/25 07:08:18;;;;;;;5.30;2.70;;;;;;;18.08;35.03;100219.68;102572;1293;62123;-76
2023/12/25 07:10:46;;;;;;;4.40;2.70;;;;;;;18.08;34.92;100221.82;102492;1292;62324;-76
2023/12/25 07:13:13;;;;;;;4.20;2.70;;;;;;;18.08;34.93;100215.05;102430;1293;60140;-76
2023/12/25 07:15:39;;;;;;;3.70;2.50;;;;;;;18.08;34.93;100217.39;102494;1294;62293;-76
2023/12/25 07:18:06;;;;;;;5.20;2.70;;;;;;;18.07;35.01;100220.63;102520;1292;62206;-76
2023/12/25 07:20:31;;;;;;;4.60;2.70;;;;;;;18.08;34.94;100225.93;102655;1292;62224;-76
2023/12/25 07:22:57;;;;;;;4.40;2.70;;;;;;;18.07;34.95;100220.26;102304;1301;62680;-76
2023/12/25 07:25:23;;;;;;;4.40;2.50;;;;;;;18.07;35.14;100219.91;102448;1294;62107;-76
2023/12/25 07:27:48;;;;;;;5.80;2.70;;;;;;;18.07;34.86;100217.97;102603;1294;62107;-76
2023/12/25 07:30:14;;;;;;;4.10;2.60;;;;;;;18.07;34.95;100224.91;102413;1292;60129;-76
2023/12/25 07:32:41;;;;;;;3.90;2.30;;;;;;;18.07;35.01;100219.77;102479;1294;62259;-76
2023/12/25 07:35:07;;;;;;;5.00;2.80;;;;;;;18.07;35.04;100224.06;102674;1296;72506;-76
2023/12/25 07:37:33;;;;;;;5.10;2.90;;;;;;;18.06;35.04;100231.20;102066;1293;670175;-76
2023/12/25 07:39:59;;;;;;;4.40;2.60;;;;;;;18.07;35.04;100229.03;102495;1295;62075;-76
2023/12/25 07:42:25;;;;;;;4.40;2.50;;;;;;;18.06;34.97;100231.72;102355;1292;62175;-76
2023/12/25 07:44:50;;;;;;;5.90;2.90;;;;;;;18.06;35.09;100237.83;102438;1298;62053;-76
2023/12/25 07:47:16;;;;;;;5.70;2.90;;;;;;;18.05;35.10;100226.09;102674;1292;62449;-76
2023/12/25 07:49:42;;;;;;;5.50;3.10;;;;;;;18.05;34.99;100235.17;102393;1297;62081;-76
2023/12/25 07:52:08;;;;;;;4.90;2.90;;;;;;;18.06;35.03;100234.60;102419;1296;62244;-76
2023/12/25 07:54:33;;;;;;;5.70;2.50;;;;;;;18.06;35.05;100228.94;102496;1293;62140;-76
2023/12/25 07:56:59;;;;;;;5.10;2.80;;;;;;;18.06;34.99;100238.89;102495;1292;62320;-76
2023/12/25 07:59:24;;;;;;;4.70;2.80;;;;;;;18.05;35.06;100230.18;102542;1298;59902;-76
2023/12/25 08:01:50;;;;;;;6.30;2.60;;;;;;;18.05;34.99;100238.90;102579;1293;62213;-76
2023/12/25 08:04:16;;;;;;;5.30;2.80;;;;;;;18.05;35.02;100246.21;102652;1296;62209;-77
2023/12/25 08:06:41;;;;;;;5.30;3.10;;;;;;;18.06;35.03;100245.84;102618;1293;62210;-76
2023/12/25 08:09:07;;;;;;;5.30;2.70;;;;;;;18.05;35.00;100244.45;102557;1294;62212;-76
2023/12/25 08:11:35;;;;;;;4.70;2.60;;;;;;;18.06;35.03;100250.46;102567;1292;75282;-76
2023/12/25 08:14:01;;;;;;;5.00;2.70;;;;;;;18.06;34.98;100254.21;102322;1300;62340;-76
2023/12/25 08:16:27;;;;;;;5.70;2.70;;;;;;;18.06;35.03;100255.64;102341;1293;60044;-76
2023/12/25 08:18:52;;;;;;;5.30;2.80;;;;;;;18.06;34.97;100255.44;102512;1293;62244;-76
2023/12/25 08:21:20;;;;;;;4.40;2.50;;;;;;;18.06;35.01;100252.97;102441;1292;62199;-76
2023/12/25 08:23:46;;;;;;;5.20;2.60;;;;;;;18.06;35.04;100262.73;102632;1295;62066;-76
2023/12/25 08:26:11;;;;;;;6.30;2.80;;;;;;;18.06;35.00;100256.88;102447;1292;62307;-76
2023/12/25 08:28:40;;;;;;;5.00;2.80;;;;;;;18.06;35.01;100262.59;102394;1298;62292;-76
2023/12/25 08:31:06;;;;;;;;;;;;;;;18.06;34.95;100249.54;102600;1299;61959;-76
2023/12/25 08:33:34;;;;;;;5.60;2.80;;;;;;;18.03;35.06;100254.02;102572;1294;62228;-76
2023/12/25 08:36:00;;;;;;;4.40;2.70;;;;;;;18.04;35.04;100265.02;102437;1296;62103;-76
2023/12/25 08:38:26;;;;;;;5.40;2.60;;;;;;;18.05;34.93;100266.93;102718;1293;60137;-76
2023/12/25 08:40:51;;;;;;;4.80;2.80;;;;;;;18.05;35.14;100260.52;102468;1293;62427;-76
2023/12/25 08:43:17;;;;;;;5.20;2.80;;;;;;;18.05;35.17;100266.73;102509;1294;62180;-76
2023/12/25 08:45:42;;;;;;;4.90;2.60;;;;;;;18.05;34.97;100257.29;102527;1292;62112;-76
2023/12/25 08:48:09;;;;;;;4.70;2.40;;;;;;;18.05;35.04;100248.77;102557;1293;62197;-76
2023/12/25 08:50:35;;;;;;;4.20;2.50;;;;;;;18.05;34.98;100246.26;102556;1292;72524;-76
2023/12/25 08:53:01;;;;;;;5.50;3.00;;;;;;;18.05;35.05;100258.16;102438;1292;75134;-76
2023/12/25 08:55:27;;;;;;;5.00;3.10;;;;;;;18.05;35.08;100261.70;102463;1293;60280;-76
2023/12/25 08:57:53;;;;;;;5.70;2.80;;;;;;;18.06;35.08;100256.17;102628;1293;60826;-76
2023/12/25 09:00:20;;;;;;;4.70;2.50;;;;;;;18.06;35.04;100254.93;102466;1293;62171;-76
2023/12/25 09:02:46;;;;;;;7.00;3.30;;;;;;;18.06;35.06;100259.16;102609;1296;62201;-76
2023/12/25 09:05:12;;;;;;;5.80;2.70;;;;;;;18.06;34.98;100264.88;102694;1292;62174;-76
2023/12/25 09:07:37;;;;;;;4.50;3.00;;;;;;;18.06;34.97;100260.39;102569;1293;62216;-76
2023/12/25 09:10:06;;;;;;;4.40;2.50;;;;;;;18.06;35.10;100257.39;102558;1293;60212;-76
2023/12/25 09:12:33;;;;;;;5.30;2.60;;;;;;;18.06;35.11;100247.23;102586;1293;62087;-76
2023/12/25 09:14:58;;;;;;;4.50;2.70;;;;;;;18.06;35.21;100247.92;102440;1293;62174;-76
2023/12/25 09:17:24;;;;;;;5.30;2.90;;;;;;;18.07;35.30;100239.90;102754;1292;60920;-76
2023/12/25 09:19:51;;;;;;;6.00;3.00;;;;;;;18.07;35.30;100225.30;102633;1293;62207;-76
2023/12/25 09:22:17;;;;;;;4.90;2.70;;;;;;;18.07;35.29;100235.77;102453;1293;62168;-76
2023/12/25 09:24:44;;;;;;;4.70;3.10;;;;;;;18.07;35.25;100235.04;102594;1292;60866;-76
2023/12/25 09:27:10;;;;;;;5.80;3.00;;;;;;;18.08;35.29;100232.86;102494;1293;62205;-76
2023/12/25 09:29:37;;;;;;;6.30;3.00;;;;;;;18.08;35.23;100231.42;102423;1293;62207;-76
2023/12/25 09:32:03;;;;;;;4.90;2.80;;;;;;;18.09;35.23;100224.40;102484;1293;62046;-76
2023/12/25 09:34:29;;;;;;;5.00;2.90;;;;;;;18.09;35.17;100224.04;102681;1295;62218;-76
2023/12/25 09:36:56;;;;;;;5.00;2.50;;;;;;;18.10;35.16;100223.45;102622;1292;60176;-76
2023/12/25 09:39:22;;;;;;;4.90;3.00;;;;;;;18.11;35.12;100218.23;102418;1293;60121;-76
2023/12/25 09:41:47;;;;;;;5.50;2.80;;;;;;;18.12;35.18;100222.45;102463;1294;62228;-76
2023/12/25 09:44:13;;;;;;;5.10;2.80;;;;;;;18.13;35.22;100222.38;102551;1294;62213;-76
2023/12/25 09:46:38;;;;;;;6.30;3.30;;;;;;;18.14;35.15;100217.52;102507;1295;60172;-76
2023/12/25 09:49:04;;;;;;;6.40;2.90;;;;;;;18.15;35.16;100214.98;102540;1293;62293;-76
2023/12/25 09:51:33;;;;;;;5.00;2.80;;;;;;;18.15;35.11;100206.38;102694;1292;60098;-76
2023/12/25 09:53:59;;;;;;;5.20;2.80;;;;;;;18.16;35.06;100212.39;102548;1292;72590;-76
2023/12/25 09:56:25;;;;;;;5.00;3.10;;;;;;;18.17;35.17;100207.36;102436;1293;62666;-76
2023/12/25 09:58:52;;;;;;;4.90;2.70;;;;;;;18.18;35.19;100209.60;102600;1292;62199;-76
2023/12/25 10:01:17;;;;;;;5.40;2.60;;;;;;;18.19;35.08;100208.28;102850;1295;60113;-76
2023/12/25 10:03:45;;;;;;;4.60;2.80;;;;;;;18.19;35.08;100204.67;102589;1293;62154;-76
2023/12/25 10:06:11;;;;;;;5.20;2.80;;;;;;;18.20;35.06;100198.19;102572;1294;62215;-76
2023/12/25 10:08:36;;;;;;;6.20;3.30;;;;;;;18.21;34.95;100201.17;102701;1292;60071;-76
2023/12/25 10:11:04;;;;;;;5.00;2.60;;;;;;;18.22;34.91;100187.08;102381;1293;62292;-76
2023/12/25 10:13:30;;;;;;;5.10;2.50;;;;;;;18.22;35.02;100190.38;102573;1293;62747;-76
2023/12/25 10:15:55;;;;;;;6.80;2.90;;;;;;;18.23;35.00;100191.08;102709;1293;62056;-76
2023/12/25 10:18:22;;;;;;;6.30;3.00;;;;;;;18.23;34.94;100190.55;102655;1292;62167;-76
2023/12/25 10:20:58;;;;;;;4.20;2.60;;;;;;;18.23;34.89;100185.89;102456;1293;62189;-76
2023/12/25 10:23:28;;;;;;;5.20;2.90;;;;;;;18.24;34.93;100187.09;102377;1293;72461;-76
2023/12/25 10:25:54;;;;;;;4.60;2.70;;;;;;;18.23;35.00;100186.42;102499;1292;75267;-76
2023/12/25 10:28:22;;;;;;;4.50;2.70;;;;;;;18.23;34.85;100193.55;102656;1293;62125;-76
2023/12/25 10:31:00;;;;;;;4.60;3.00;;;;;;;18.23;34.87;100187.34;102475;1292;62311;-76
2023/12/25 10:33:26;;;;;;;5.00;2.90;;;;;;;18.23;34.80;100187.89;102665;1293;72399;-76
2023/12/25 10:36:10;;;;;;;5.30;2.80;;;;;;;18.22;34.88;100201.07;102748;1292;62203;-76
2023/12/25 10:38:40;;;;;;;5.30;2.70;;;;;;;18.22;34.83;100193.80;102610;1292;60201;-77
2023/12/25 10:41:35;;;;;;;;;;;;;;;18.22;34.94;100190.93;102577;1293;60005;-76
2023/12/25 10:44:02;;;;;;;5.50;3.00;;;;;;;18.18;34.86;100195.12;102366;1299;71429;-76
2023/12/25 10:46:37;;;;;;;6.80;2.90;;;;;;;18.19;34.88;100199.33;102362;1302;75404;-76
2023/12/25 10:49:05;;;;;;;4.90;2.80;;;;;;;18.19;34.92;100194.20;102279;1299;62160;-76
2023/12/25 10:51:40;;;;;;;4.70;2.80;;;;;;;18.19;34.85;100195.45;102261;1298;62325;-76
2023/12/25 10:54:10;;;;;;;4.70;2.60;;;;;;;18.18;34.86;100198.15;102187;1299;72505;-76
2023/12/25 10:56:37;;;;;;;5.50;2.70;;;;;;;18.18;34.90;100182.52;102189;1298;75331;-76
2023/12/25 10:59:30;;;;;;;5.40;2.80;;;;;;;18.18;34.77;100174.66;102208;1299;62056;-76
2023/12/25 11:01:56;;;;;;;4.40;2.70;;;;;;;18.17;34.87;100176.69;102426;1299;62657;-76
2023/12/25 11:04:23;;;;;;;5.50;3.10;;;;;;;18.17;34.99;100174.36;102172;1299;62235;-76
2023/12/25 11:06:49;;;;;;;6.00;3.00;;;;;;;18.17;34.87;100175.06;102210;1302;62148;-76
2023/12/25 11:09:17;;;;;;;5.50;2.80;;;;;;;18.17;34.89;100175.78;102255;1299;60214;-76
2023/12/25 11:11:44;;;;;;;4.10;2.50;;;;;;;18.17;34.87;100174.18;102145;1299;62285;-76